Аэропорт: Ивано-Франковск. Ивано-Франковск

ICAO: UKLI

METAR:
Информация по данной станции не доступна
METAR:
2019-11-20 17:02:00
TAF UKLI 201702Z 2018/2103 11005MPS 6000 BKN015 TEMPO 2018/2021 13007G12MPS 2100 -SHRA BKN007 BKN010CB